Aérodrome :
LOGIN :

S'inscrire | Disclaimer

   EN    FR    IT 

 










Légende :    VFR   VFR Marginal   IFR   IFR Intensif   IFR Très Intensif
Visi : 
Plafond : 
>= 8 km
>= 3000ft
5 à 8 km
1000 à 3000 ft
1500m à 5 km
500 à 1000 ft
800 à 1500m
200 à 500 ft
< 800m
< 200 ft
Symboles :   Orages  Brouillard  Fortes neiges  Fortes précipitations  Vent > 20 kt
SIGMETs :   Divers  Orages  Givrage  Turbulence  Onde Orograph.  Cendres Volcan.







- Altitude de l'aérodrome : 299 ft
- Code IATA : EDM
- Voir les cartes d'approche


LFRI - La Roche Sur Yon - Les Ajoncs

DERNIER METAR :
  • 201400Z AUTO 06009KT CAVOK 23/13 Q1022 NOSIG

METARs EXPIRÉS :
  • 201330Z AUTO 06011KT 9999 FEW018 22/13 Q1023 NOSIG
  • 201300Z AUTO 05009KT 010V080 9999 FEW013 22/13 Q1023 NOSIG
  • 201230Z AUTO 04009KT 010V070 CAVOK 22/13 Q1023 NOSIG
  • 201200Z AUTO 04012KT CAVOK 22/13 Q1023 NOSIG
  • 201130Z AUTO 02010KT 350V060 CAVOK 21/13 Q1023 NOSIG

TAF TAF LFRI
Valide du 20 à 12h jusqu'au 21 à 12h UTC


201100Z 2012/2112 04008KT CAVOK
PROB40
TEMPO 2017/2020 02015G25KT -SHRA BKN050TCU
PROB30
TEMPO 2018/2020 02020G30KT -TSRA BKN050CB
Pas de NOTAMs connus pour ce terrain.



MET'MAP, la Météo Aéronautique d'un coup d'oeil ! - Copyright ORBIFLY Décembre 2007 - Disclaimer

ORBIFLY MET'MAP TEAM :

Programmation & Développement : Alexandra Zaïnal
Conception & Développement : Baudouin d'Aumeries
Co-Programmation & Développement : Marc-Olivier Méhu
Soutien technique & logistique : Manuel Goepfert

Contact : metmap@orbifly.com




SOURCES & CREDITS :

   NOAA